Provo, Kentucky
Current Conditions -  °F | °C
As of 9:53 AM on Sunday 23 Nov 2014 (Local Time) from KBWG Reporting Station
Overcast Overcast  
Wind Chill: 61°   Ceiling: 7000
Heat Index: 61°   Visibility: 10mi
Dew Point: 50°   Wind: 17mph
Humidity: 67%   Direction: 140°SE
Pressure: 29.82"   Gusts: 22mph
Location:  37.23°N, 86.83°W
Report Text: KBWG 231553Z AUTO 14015G19KT 10SM SCT037 BKN070 OVC085 16/10 A2982 RMK AO2 SLP096 T01610100
Loading
Personal Weather Stations






























Interactive Weather Map New forecast layout! Learn more

10-Day Weather Forecast

Advertisements
Track Severe Weather on mobile